createdAt,value
2018-12-12T00:00:07.155Z,32.5
2018-12-12T00:00:55.711Z,32.7
2018-12-12T00:01:46.895Z,31.8
2018-12-12T00:02:36.397Z,30.6
2018-12-12T00:03:26.746Z,29.9
2018-12-12T00:04:16.244Z,29.5
2018-12-12T00:05:06.867Z,29.2
2018-12-12T00:05:56.627Z,29
2018-12-12T00:06:46.124Z,28.8
2018-12-12T00:25:03.381Z,25.9
2018-12-12T00:25:52.943Z,25.8
2018-12-12T00:26:43.288Z,25.8
2018-12-12T00:27:33.282Z,25.6
2018-12-12T00:28:22.753Z,25.6
2018-12-12T00:29:12.299Z,25.6
2018-12-12T00:30:03.406Z,25.5
2018-12-12T00:30:53.755Z,25.5
2018-12-12T00:31:43.018Z,25.5
2018-12-12T00:32:33.331Z,25.2
2018-12-12T00:33:23.424Z,24.9
2018-12-12T00:34:13.770Z,24.8
2018-12-12T00:35:04.360Z,24.8
2018-12-12T00:35:53.586Z,24.6
2018-12-12T00:36:43.620Z,24.6
2018-12-12T00:37:33.753Z,24.6
2018-12-12T00:38:22.920Z,24.5
2018-12-12T00:39:14.380Z,24.5
2018-12-12T00:40:04.238Z,24.4
2018-12-12T00:40:54.200Z,24.5
2018-12-12T00:41:44.282Z,25.6
2018-12-12T00:42:33.804Z,26.4
2018-12-12T00:43:24.102Z,27.2
2018-12-12T00:44:13.601Z,28
2018-12-12T00:45:05.040Z,28.8
2018-12-12T00:45:54.529Z,29.3
2018-12-12T00:46:43.494Z,29.8
2018-12-12T00:47:33.869Z,30.1
2018-12-12T00:48:23.857Z,30.4
2018-12-12T00:49:15.067Z,30.8
2018-12-12T00:50:04.492Z,31
2018-12-12T00:50:54.337Z,31.3
2018-12-12T00:51:44.907Z,31.5
2018-12-12T00:52:33.119Z,31.8
2018-12-12T00:53:24.816Z,31.9
2018-12-12T00:54:14.302Z,32.1
2018-12-12T00:55:04.895Z,32.3
2018-12-12T00:55:54.454Z,32.5
2018-12-12T00:56:44.734Z,32.7
2018-12-12T00:57:35.374Z,32.8
2018-12-12T00:58:25.152Z,32.9
2018-12-12T00:59:15.469Z,31.4
2018-12-12T01:00:05.299Z,30.2
2018-12-12T01:00:55.013Z,29.4
2018-12-12T01:01:45.891Z,28.9
2018-12-12T01:02:35.141Z,28.6
2018-12-12T01:03:24.983Z,28.4
2018-12-12T01:04:15.763Z,28.2
2018-12-12T01:05:04.813Z,28.1
2018-12-12T01:05:56.170Z,28
2018-12-12T01:06:45.409Z,27.9
2018-12-12T01:08:25.554Z,27.8
2018-12-12T01:09:15.890Z,27.6
2018-12-12T01:10:07.216Z,27.5
2018-12-12T01:10:55.723Z,27.3
2018-12-12T01:11:46.053Z,27.3
2018-12-12T01:12:35.563Z,27.1
2018-12-12T01:13:25.966Z,27.1
2018-12-12T01:14:16.251Z,27
2018-12-12T01:15:06.310Z,26.9
2018-12-12T01:15:56.905Z,26.9
2018-12-12T01:16:46.508Z,26.9
2018-12-12T01:17:37.033Z,26.9
2018-12-12T01:18:25.981Z,26.8
2018-12-12T01:19:16.312Z,26.5
2018-12-12T01:20:06.235Z,26.2
2018-12-12T01:20:57.213Z,26
2018-12-12T01:21:47.802Z,25.8
2018-12-12T01:22:37.405Z,25.8
2018-12-12T01:23:27.434Z,25.6
2018-12-12T01:24:16.988Z,25.6
2018-12-12T01:25:07.305Z,25.6
2018-12-12T01:25:57.372Z,25.5
2018-12-12T01:26:46.802Z,25.4
2018-12-12T01:27:37.482Z,25.4
2018-12-12T01:28:26.665Z,25.4
2018-12-12T01:29:16.519Z,25.3
2018-12-12T01:30:05.827Z,24.9
2018-12-12T01:30:57.272Z,24.8
2018-12-12T01:31:46.972Z,24.6
2018-12-12T01:32:35.996Z,24.6
2018-12-12T01:33:27.094Z,24.5
2018-12-12T01:34:17.427Z,24.4
2018-12-12T01:35:07.485Z,24.4
2018-12-12T01:35:57.521Z,24.3
2018-12-12T01:36:47.309Z,24.6
2018-12-12T01:37:37.119Z,25.7
2018-12-12T01:38:27.241Z,26.6
2018-12-12T01:39:16.943Z,27.3
2018-12-12T01:40:07.852Z,28.2
2018-12-12T01:40:56.852Z,28.9
2018-12-12T01:41:47.403Z,29.4
2018-12-12T01:42:38.298Z,29.8
2018-12-12T01:43:27.576Z,30.1
2018-12-12T01:44:16.826Z,30.4
2018-12-12T01:45:07.426Z,30.7
2018-12-12T01:45:57.224Z,30.9
2018-12-12T01:46:46.504Z,31.2
2018-12-12T01:47:37.836Z,31.4
2018-12-12T01:48:26.917Z,31.6
2018-12-12T01:49:18.398Z,31.8
2018-12-12T01:50:07.221Z,32.1
2018-12-12T01:50:57.271Z,32.2
2018-12-12T01:51:47.813Z,32.4
2018-12-12T01:52:37.964Z,31.6
2018-12-12T01:53:26.751Z,30.5
2018-12-12T01:54:17.786Z,28.6
2018-12-12T01:55:08.404Z,27.9
2018-12-12T01:55:58.468Z,27.7
2018-12-12T01:56:48.237Z,28.3
2018-12-12T01:57:38.618Z,29.1
2018-12-12T01:58:28.692Z,29.8
2018-12-12T01:59:19.003Z,30.3
2018-12-12T02:00:07.936Z,30.7
2018-12-12T02:00:58.013Z,31
2018-12-12T02:01:49.060Z,31.3
2018-12-12T02:02:38.558Z,31.6
2018-12-12T02:03:28.898Z,31.8
2018-12-12T02:04:19.505Z,32.1
2018-12-12T02:05:09.558Z,32.3
2018-12-12T02:05:59.604Z,32.4
2018-12-12T02:06:50.023Z,32.6
2018-12-12T02:07:39.700Z,32.8
2018-12-12T02:08:29.538Z,32.4
2018-12-12T02:09:20.148Z,30.6
2018-12-12T02:10:09.637Z,29.3
2018-12-12T02:10:59.670Z,28.5
2018-12-12T02:11:50.030Z,28.1
2018-12-12T02:12:39.822Z,27.7
2018-12-12T02:13:29.887Z,27.5
2018-12-12T02:14:19.642Z,27.3
2018-12-12T02:15:10.255Z,27.2
2018-12-12T02:16:00.064Z,27.1
2018-12-12T02:16:50.132Z,27.1
2018-12-12T02:17:40.159Z,27
2018-12-12T02:18:30.192Z,27.1
2018-12-12T02:19:20.282Z,27.1
2018-12-12T02:20:08.974Z,26.9
2018-12-12T02:20:59.744Z,26.9
2018-12-12T02:21:50.657Z,26.8
2018-12-12T02:22:40.507Z,26.8
2018-12-12T02:23:30.827Z,26.8
2018-12-12T02:24:20.062Z,26.7
2018-12-12T02:25:10.414Z,26.6
2018-12-12T02:26:01.251Z,26.6
2018-12-12T02:26:50.176Z,26.6
2018-12-12T02:27:40.286Z,26.6
2018-12-12T02:28:31.103Z,26.4
2018-12-12T02:29:20.979Z,26.1
2018-12-12T02:30:11.122Z,25.9
2018-12-12T02:31:01.864Z,25.8
2018-12-12T02:31:51.481Z,25.7
2018-12-12T02:32:42.540Z,25.6
2018-12-12T02:33:32.573Z,25.6
2018-12-12T02:34:20.858Z,25.5
2018-12-12T02:35:11.647Z,25.4
2018-12-12T02:36:01.779Z,25.4
2018-12-12T02:36:51.746Z,25.4
2018-12-12T02:37:42.097Z,25.3
2018-12-12T02:38:32.432Z,25.2
2018-12-12T02:39:21.970Z,25.4
2018-12-12T02:40:10.736Z,26.4
2018-12-12T02:41:01.341Z,27.1
2018-12-12T02:41:51.399Z,27.9
2018-12-12T02:42:41.480Z,28.7
2018-12-12T02:43:31.772Z,29.3
2018-12-12T02:44:21.625Z,29.6
2018-12-12T02:45:10.885Z,30
2018-12-12T02:46:00.717Z,30.3
2018-12-12T02:46:51.279Z,30.6
2018-12-12T02:47:40.807Z,30.8
2018-12-12T02:48:31.415Z,31.1
2018-12-12T02:49:21.134Z,31.3
2018-12-12T02:50:11.983Z,31.5
2018-12-12T02:51:02.060Z,31.8
2018-12-12T02:51:52.368Z,31.9
2018-12-12T02:52:42.162Z,32.1
2018-12-12T02:53:32.505Z,32.3
2018-12-12T02:54:22.235Z,32.4
2018-12-12T02:55:12.282Z,32.6
2018-12-12T02:56:02.285Z,32.7
2018-12-12T02:56:52.157Z,32.8
2018-12-12T02:57:43.170Z,33
2018-12-12T02:58:32.515Z,32.9
2018-12-12T02:59:23.381Z,31.3
2018-12-12T03:00:12.613Z,29.4
2018-12-12T03:01:02.736Z,28.4
2018-12-12T03:01:53.541Z,27.8
2018-12-12T03:02:43.511Z,27.3
2018-12-12T03:03:34.499Z,27
2018-12-12T03:04:23.082Z,26.8
2018-12-12T03:05:12.648Z,26.7
2018-12-12T03:06:03.760Z,26.6
2018-12-12T03:06:53.860Z,26.5
2018-12-12T03:07:43.896Z,26.4
2018-12-12T03:08:33.586Z,26.6
2018-12-12T03:09:24.232Z,26.7
2018-12-12T03:10:14.005Z,26.7
2018-12-12T03:11:04.645Z,26.6
2018-12-12T03:11:53.894Z,26.6
2018-12-12T03:12:44.814Z,26.6
2018-12-12T03:13:34.554Z,26.5
2018-12-12T03:14:25.153Z,26.5
2018-12-12T03:15:14.769Z,26.5
2018-12-12T03:16:05.013Z,26.4
2018-12-12T03:16:54.483Z,26.4
2018-12-12T03:17:45.065Z,26.4
2018-12-12T03:18:34.913Z,26.3
2018-12-12T03:19:25.265Z,25.9
2018-12-12T03:20:15.338Z,25.8
2018-12-12T03:21:05.080Z,25.6
2018-12-12T03:21:55.746Z,25.6
2018-12-12T03:22:44.872Z,25.5
2018-12-12T03:23:35.805Z,25.4
2018-12-12T03:24:25.288Z,25.4
2018-12-12T03:25:15.652Z,25.4
2018-12-12T03:26:05.423Z,25.3
2018-12-12T03:26:54.993Z,25.3
2018-12-12T03:27:44.946Z,25.3
2018-12-12T03:28:35.304Z,26.3
2018-12-12T03:29:25.353Z,27.1
2018-12-12T03:31:06.489Z,28.6
2018-12-12T03:31:56.241Z,29.3
2018-12-12T03:32:46.255Z,29.6
2018-12-12T03:33:35.965Z,30
2018-12-12T03:34:26.593Z,30.3
2018-12-12T03:35:16.037Z,30.6
2018-12-12T03:36:05.850Z,30.8
2018-12-12T03:36:55.406Z,31.1
2018-12-12T03:37:46.923Z,31.3
2018-12-12T03:38:36.123Z,31.5
2018-12-12T03:39:26.791Z,31.7
2018-12-12T03:40:15.580Z,31.9
2018-12-12T03:41:06.474Z,32.1
2018-12-12T03:41:56.276Z,32.3
2018-12-12T03:42:46.579Z,32.4
2018-12-12T03:43:36.967Z,32.6
2018-12-12T03:44:27.009Z,32.7
2018-12-12T03:45:16.169Z,32.9
2018-12-12T03:46:06.256Z,32.9
2018-12-12T03:46:57.111Z,33.1
2018-12-12T03:47:47.217Z,32
2018-12-12T03:48:37.567Z,29.8
2018-12-12T03:49:27.009Z,28.3
2018-12-12T03:50:17.392Z,27.6
2018-12-12T03:51:07.404Z,27.1
2018-12-12T03:51:56.910Z,26.7
2018-12-12T03:52:47.524Z,26.4
2018-12-12T03:53:37.031Z,26.3
2018-12-12T03:54:27.616Z,26.2
2018-12-12T03:55:17.684Z,26.1
2018-12-12T03:56:06.627Z,26.1
2018-12-12T03:56:57.332Z,26.1
2018-12-12T03:57:47.918Z,26.3
2018-12-12T03:58:37.751Z,26.4
2018-12-12T03:59:27.776Z,26.4
2018-12-12T04:00:18.521Z,26.4
2018-12-12T04:01:07.851Z,26.3
2018-12-12T04:01:57.966Z,26.3
2018-12-12T04:02:48.245Z,26.3
2018-12-12T04:03:37.738Z,26.3
2018-12-12T04:04:27.443Z,26.3
2018-12-12T04:05:17.651Z,26.3
2018-12-12T04:06:07.318Z,26.2
2018-12-12T04:06:58.271Z,26.2
2018-12-12T04:07:47.488Z,26
2018-12-12T04:08:37.587Z,25.8
2018-12-12T04:09:29.046Z,25.6
2018-12-12T04:10:18.985Z,25.5
2018-12-12T04:11:08.885Z,25.4
2018-12-12T04:11:58.888Z,25.4
2018-12-12T04:12:48.422Z,25.3
2018-12-12T04:13:39.259Z,25.3
2018-12-12T04:14:29.522Z,25.2
2018-12-12T04:15:18.887Z,25.2
2018-12-12T04:16:08.880Z,26.2
2018-12-12T04:16:58.905Z,27.1
2018-12-12T04:18:39.028Z,28.6
2018-12-12T04:19:29.667Z,29.3
2018-12-12T04:20:18.309Z,29.6
2018-12-12T04:21:10.042Z,29.9
2018-12-12T04:21:58.779Z,30.3
2018-12-12T04:22:48.816Z,30.5
2018-12-12T04:23:39.196Z,30.8
2018-12-12T04:24:29.236Z,31
2018-12-12T04:25:20.799Z,30.7
2018-12-12T04:26:09.586Z,29.6
2018-12-12T04:26:59.866Z,28.1
2018-12-12T04:27:49.678Z,26.7
2018-12-12T04:28:39.189Z,26.2
2018-12-12T04:29:29.523Z,26.1
2018-12-12T04:30:20.657Z,26.8
2018-12-12T04:31:10.226Z,27.8
2018-12-12T04:32:00.248Z,28.5
2018-12-12T04:32:49.476Z,29.3
2018-12-12T04:33:40.089Z,29.7
2018-12-12T04:34:31.850Z,30.1
2018-12-12T04:35:20.729Z,30.4
2018-12-12T04:36:09.515Z,30.8
2018-12-12T04:37:00.805Z,31
2018-12-12T04:54:18.256Z,25.6
2018-12-12T04:55:08.139Z,25.6
2018-12-12T04:55:58.711Z,25.6
2018-12-12T04:56:49.009Z,25.9
2018-12-12T04:57:38.261Z,26.1
2018-12-12T04:58:27.998Z,26.2
2018-12-12T04:59:18.384Z,26.2
2018-12-12T05:00:08.237Z,26.3
2018-12-12T05:00:58.004Z,26.2
2018-12-12T05:01:48.585Z,26.1
2018-12-12T05:02:38.033Z,26.1
2018-12-12T05:03:28.341Z,26.1
2018-12-12T05:04:19.068Z,26.1
2018-12-12T05:05:08.491Z,26.1
2018-12-12T05:05:59.309Z,26
2018-12-12T05:06:49.307Z,25.9
2018-12-12T05:07:38.948Z,25.6
2018-12-12T05:08:29.903Z,25.5
2018-12-12T05:09:19.906Z,25.4
2018-12-12T05:10:10.586Z,25.3
2018-12-12T05:10:59.491Z,25.2
2018-12-12T05:11:49.253Z,25.2
2018-12-12T05:12:39.396Z,25.1
2018-12-12T05:13:28.835Z,25
2018-12-12T05:14:19.413Z,25.9
2018-12-12T05:15:09.512Z,26.8
2018-12-12T05:15:59.016Z,27.6
2018-12-12T05:16:50.068Z,28.4
2018-12-12T05:17:39.315Z,29.1
2018-12-12T05:18:29.983Z,29.4
2018-12-12T05:19:19.685Z,29.8
2018-12-12T05:20:09.199Z,30.1
2018-12-12T05:20:59.850Z,30.3
2018-12-12T05:21:49.602Z,30.6
2018-12-12T05:22:40.169Z,30.8
2018-12-12T05:23:29.734Z,31
2018-12-12T05:24:19.774Z,31.3
2018-12-12T05:25:10.490Z,31.4
2018-12-12T05:26:00.757Z,31.6
2018-12-12T05:26:50.509Z,31.8
2018-12-12T05:27:40.832Z,31.9
2018-12-12T05:28:29.522Z,32.1
2018-12-12T05:29:20.427Z,32.2
2018-12-12T05:30:10.799Z,32.3
2018-12-12T05:31:00.284Z,32.5
2018-12-12T05:31:51.840Z,32.6
2018-12-12T05:32:41.724Z,32.8
2018-12-12T05:33:29.637Z,32.9
2018-12-12T05:34:19.694Z,32.5
2018-12-12T05:35:09.714Z,30.1
2018-12-12T05:36:01.444Z,28.2
2018-12-12T05:36:50.109Z,27.1
2018-12-12T05:37:52.364Z,26.4
2018-12-12T05:38:30.194Z,25.9
2018-12-12T05:39:21.369Z,25.8
2018-12-12T05:40:10.841Z,25.6
2018-12-12T05:41:00.929Z,25.4
2018-12-12T05:41:50.756Z,25.3
2018-12-12T05:42:41.021Z,25.3
2018-12-12T05:43:31.958Z,25.3
2018-12-12T05:44:23.164Z,25.6
2018-12-12T05:45:10.924Z,25.8
2018-12-12T05:46:01.125Z,25.9
2018-12-12T05:46:51.363Z,25.9
2018-12-12T05:47:41.383Z,25.9
2018-12-12T05:48:31.976Z,25.9
2018-12-12T05:49:21.211Z,25.9
2018-12-12T05:50:11.828Z,25.9
2018-12-12T05:51:01.893Z,25.9
2018-12-12T05:51:51.946Z,25.9
2018-12-12T05:52:42.558Z,25.9
2018-12-12T05:53:31.528Z,25.8
2018-12-12T05:54:21.853Z,25.6
2018-12-12T05:55:11.923Z,26.3
2018-12-12T05:56:15.113Z,27.3
2018-12-12T05:56:58.223Z,28.2
2018-12-12T05:57:42.150Z,28.7
2018-12-12T05:58:32.708Z,29.1
2018-12-12T05:59:21.496Z,29.5
2018-12-12T06:00:12.158Z,29.8
2018-12-12T06:01:01.658Z,30.1
2018-12-12T06:01:51.508Z,30.4
2018-12-12T06:02:41.470Z,30.7
2018-12-12T06:03:33.738Z,30.9
2018-12-12T06:04:22.223Z,31.2
2018-12-12T06:05:12.460Z,31.4
2018-12-12T06:06:02.595Z,31.6
2018-12-12T06:06:52.722Z,31.8
2018-12-12T06:07:44.803Z,32
2018-12-12T06:08:32.522Z,32.2
2018-12-12T06:09:22.045Z,32.4
2018-12-12T06:10:12.969Z,32.5
2018-12-12T06:11:03.268Z,32.6
2018-12-12T06:11:53.659Z,32.8
2018-12-12T06:12:44.244Z,32.9
2018-12-12T06:13:33.713Z,33.1
2018-12-12T06:14:23.729Z,32.5
2018-12-12T06:15:14.077Z,29.9
2018-12-12T06:16:03.869Z,28.1
2018-12-12T06:16:53.378Z,27.1
2018-12-12T06:17:44.635Z,26.4
2018-12-12T06:18:34.413Z,26
2018-12-12T06:19:23.121Z,25.7
2018-12-12T06:20:13.984Z,25.6
2018-12-12T06:21:03.761Z,25.4
2018-12-12T06:21:53.735Z,25.3
2018-12-12T06:22:45.348Z,25.3
2018-12-12T06:23:34.158Z,25.4
2018-12-12T06:24:24.228Z,25.8
2018-12-12T06:25:13.253Z,26
2018-12-12T06:26:04.588Z,26.1
2018-12-12T06:26:53.837Z,26.1
2018-12-12T06:27:44.983Z,26.1
2018-12-12T06:28:36.428Z,26.1
2018-12-12T06:29:24.787Z,26.1
2018-12-12T06:30:15.151Z,26
2018-12-12T06:31:04.977Z,26
2018-12-12T06:31:54.789Z,26
2018-12-12T06:32:44.310Z,25.9
2018-12-12T06:33:33.798Z,25.8
2018-12-12T06:34:25.192Z,26.2
2018-12-12T06:35:14.183Z,27.3
2018-12-12T06:36:04.514Z,28
2018-12-12T06:36:54.576Z,28.8
2018-12-12T06:37:44.977Z,29.4
2018-12-12T06:38:34.682Z,29.8
2018-12-12T06:39:24.752Z,30.1
2018-12-12T06:40:15.109Z,30.3
2018-12-12T06:41:05.694Z,29.3
2018-12-12T06:41:55.235Z,28.3
2018-12-12T06:42:44.974Z,27.1
2018-12-12T06:43:34.852Z,25.8
2018-12-12T06:44:23.899Z,24.7
2018-12-12T06:45:14.946Z,23.6
2018-12-12T06:46:05.007Z,23.6
2018-12-12T06:46:54.778Z,23.7
2018-12-12T06:47:45.123Z,24.9
2018-12-12T06:48:36.123Z,25.9
2018-12-12T06:49:25.929Z,26.9
2018-12-12T06:50:15.997Z,27.7
2018-12-12T06:51:06.016Z,28.6
2018-12-12T06:51:56.119Z,29.3
2018-12-12T06:52:46.393Z,29.6
2018-12-12T06:53:36.186Z,30.1
2018-12-12T06:54:26.201Z,30.4
2018-12-12T06:55:16.275Z,30.7
2018-12-12T06:56:06.363Z,31
2018-12-12T06:56:55.947Z,31.3
2018-12-12T06:57:45.773Z,31.6
2018-12-12T06:58:36.054Z,31.8
2018-12-12T06:59:27.227Z,32
2018-12-12T07:00:16.795Z,32.2
2018-12-12T07:01:07.003Z,32.4
2018-12-12T07:01:56.567Z,32.6
2018-12-12T07:02:46.050Z,32.7
2018-12-12T07:03:37.208Z,32.9
2018-12-12T07:04:26.953Z,33.1
2018-12-12T07:05:17.021Z,33.1
2018-12-12T07:06:07.324Z,32.5
2018-12-12T07:06:57.087Z,29.8
2018-12-12T07:07:47.187Z,28
2018-12-12T07:08:36.382Z,26.9
2018-12-12T07:09:27.795Z,26.3
2018-12-12T07:10:17.317Z,25.8
2018-12-12T07:11:07.464Z,25.5
2018-12-12T07:11:58.572Z,25.4
2018-12-12T07:12:47.247Z,25.3
2018-12-12T07:13:42.732Z,25.1
2018-12-12T07:14:27.738Z,25.1
2018-12-12T07:15:18.477Z,25.1
2018-12-12T07:16:07.752Z,25.6
2018-12-12T07:16:56.680Z,25.8
2018-12-12T07:17:47.632Z,25.9
2018-12-12T07:18:37.936Z,26
2018-12-12T07:19:28.330Z,26
2018-12-12T07:20:18.382Z,25.9
2018-12-12T07:21:09.076Z,25.9
2018-12-12T07:21:58.241Z,25.9
2018-12-12T07:22:50.418Z,25.9
2018-12-12T07:23:38.109Z,25.9
2018-12-12T07:24:28.416Z,25.8
2018-12-12T07:25:19.372Z,25.8
2018-12-12T07:26:08.796Z,26.9
2018-12-12T07:26:58.541Z,27.8
2018-12-12T07:27:48.830Z,28.6
2018-12-12T07:28:37.481Z,29.3
2018-12-12T07:29:29.009Z,29.8
2018-12-12T07:30:18.390Z,30.1
2018-12-12T07:31:08.281Z,30.4
2018-12-12T07:31:58.906Z,30.7
2018-12-12T07:32:49.211Z,30.9
2018-12-12T07:33:38.677Z,31.3
2018-12-12T07:34:28.786Z,31.5
2018-12-12T07:35:19.089Z,31.7
2018-12-12T07:36:08.300Z,31.9
2018-12-12T07:51:08.451Z,31
2018-12-12T07:51:44.045Z,30.9
2018-12-12T07:52:35.573Z,30.9
2018-12-12T07:53:24.425Z,30.8
2018-12-12T07:54:14.487Z,30.6
2018-12-12T07:55:04.274Z,29.8
2018-12-12T07:55:54.660Z,29.1
2018-12-12T07:56:44.119Z,28.5
2018-12-12T07:57:35.346Z,28.2
2018-12-12T07:58:24.602Z,27.9
2018-12-12T08:00:04.092Z,27.7
2018-12-12T08:00:54.285Z,27.6
2018-12-12T08:01:44.740Z,27.5
2018-12-12T08:02:34.587Z,27.4
2018-12-12T08:03:23.569Z,27.3
2018-12-12T08:04:14.437Z,27.3
2018-12-12T08:05:04.482Z,26.9
2018-12-12T08:05:53.996Z,26.4
2018-12-12T08:06:44.643Z,26
2018-12-12T08:07:34.121Z,25.8
2018-12-12T08:08:25.841Z,25.6
2018-12-12T08:09:14.776Z,25.4
2018-12-12T08:10:04.859Z,25.1
2018-12-12T08:10:54.418Z,25.6
2018-12-12T08:11:44.891Z,26.5
2018-12-12T08:12:35.449Z,27.3
2018-12-12T08:13:25.883Z,28
2018-12-12T08:14:15.902Z,28.6
2018-12-12T08:15:05.645Z,29.1
2018-12-12T08:15:54.882Z,29.4
2018-12-12T08:16:45.513Z,29.8
2018-12-12T08:17:36.151Z,30.1
2018-12-12T08:18:26.128Z,30.4
2018-12-12T08:19:15.923Z,30.7
2018-12-12T08:20:06.021Z,30.9
2018-12-12T08:20:55.475Z,31.2
2018-12-12T08:21:46.105Z,31.4
2018-12-12T08:22:35.905Z,31.6
2018-12-12T08:23:26.028Z,31.8
2018-12-12T08:24:15.633Z,32
2018-12-12T08:25:06.905Z,32.3
2018-12-12T08:25:56.455Z,32.4
2018-12-12T08:26:45.735Z,32.6
2018-12-12T08:27:36.130Z,32.8
2018-12-12T08:28:25.610Z,32.9
2018-12-12T08:29:16.712Z,33
2018-12-12T08:30:05.248Z,33.1
2018-12-12T08:30:56.308Z,33.3
2018-12-12T08:31:46.073Z,33
2018-12-12T08:32:36.007Z,30.5
2018-12-12T08:33:26.175Z,28.4
2018-12-12T08:34:16.847Z,27.2
2018-12-12T08:35:06.401Z,26.4
2018-12-12T08:35:56.850Z,26
2018-12-12T08:36:46.935Z,25.6
2018-12-12T08:37:37.565Z,25.4
2018-12-12T08:38:25.759Z,25.3
2018-12-12T08:39:15.874Z,25.3
2018-12-12T08:40:07.994Z,25.2
2018-12-12T08:40:57.244Z,25.2
2018-12-12T08:41:46.763Z,25.6
2018-12-12T08:42:36.610Z,25.9
2018-12-12T08:43:26.669Z,25.9
2018-12-12T08:44:17.349Z,26
2018-12-12T08:45:07.826Z,26.1
2018-12-12T08:45:57.313Z,26
2018-12-12T08:46:47.341Z,26
2018-12-12T08:47:37.149Z,26
2018-12-12T08:48:27.866Z,26
2018-12-12T08:49:17.096Z,25.9
2018-12-12T08:50:08.210Z,26
2018-12-12T08:50:57.105Z,27.1
2018-12-12T08:51:47.196Z,28
2018-12-12T08:52:37.779Z,28.8
2018-12-12T08:53:28.061Z,29.6
2018-12-12T08:54:17.841Z,30.3
2018-12-12T08:55:07.936Z,30.6
2018-12-12T08:55:57.511Z,30.9
2018-12-12T08:56:47.289Z,31.1
2018-12-12T08:57:36.851Z,31.3
2018-12-12T08:58:28.156Z,31.6
2018-12-12T08:59:18.029Z,31.8
2018-12-12T09:00:08.658Z,32.1
2018-12-12T09:16:29.669Z,25.2
2018-12-12T09:17:19.307Z,25.7
2018-12-12T09:18:09.150Z,25.9
2018-12-12T09:18:59.755Z,26
2018-12-12T09:19:49.263Z,26.1
2018-12-12T09:20:39.715Z,26.1
2018-12-12T09:21:31.632Z,26
2018-12-12T09:22:19.562Z,26
2018-12-12T09:23:09.780Z,26
2018-12-12T09:24:00.052Z,26
2018-12-12T09:24:49.547Z,25.9
2018-12-12T09:25:40.460Z,26.6
2018-12-12T09:26:30.971Z,27.7
2018-12-12T09:27:20.767Z,28.6
2018-12-12T09:28:10.057Z,29.4
2018-12-12T09:29:00.209Z,30.1
2018-12-12T09:29:50.025Z,30.4
2018-12-12T09:30:40.539Z,30.8
2018-12-12T09:31:31.116Z,31
2018-12-12T09:32:21.144Z,31.3
2018-12-12T09:33:11.176Z,31.6
2018-12-12T09:34:00.700Z,31.8
2018-12-12T09:34:50.490Z,32
2018-12-12T09:35:40.844Z,32.3
2018-12-12T09:36:31.138Z,32.4
2018-12-12T09:37:21.489Z,32.6
2018-12-12T09:38:11.268Z,32.8
2018-12-12T09:39:01.613Z,32.9
2018-12-12T09:39:50.931Z,33.1
2018-12-12T09:40:41.197Z,33.2
2018-12-12T09:41:31.847Z,33.4
2018-12-12T09:42:21.817Z,32.1
2018-12-12T09:43:12.134Z,29.4
2018-12-12T09:44:52.224Z,26.9
2018-12-12T09:45:41.506Z,26.3
2018-12-12T09:46:32.874Z,25.9
2018-12-12T09:47:22.085Z,25.6
2018-12-12T09:48:11.197Z,25.5
2018-12-12T09:49:01.778Z,25.4
2018-12-12T09:49:52.293Z,25.3
2018-12-12T09:50:42.621Z,25.3
2018-12-12T09:51:32.472Z,25.3
2018-12-12T09:52:22.091Z,25.3
2018-12-12T09:53:12.606Z,25.3
2018-12-12T09:54:02.108Z,25.3
2018-12-12T09:54:52.064Z,25.3
2018-12-12T09:55:44.311Z,25.4
2018-12-12T09:56:32.761Z,25.4
2018-12-12T09:57:22.640Z,25.4
2018-12-12T09:58:12.386Z,25.4
2018-12-12T09:59:03.031Z,25.4
2018-12-12T09:59:52.959Z,25.4
2018-12-12T10:00:43.343Z,25.5
2018-12-12T10:01:32.886Z,25.5
2018-12-12T10:02:22.943Z,25.5
2018-12-12T10:03:14.130Z,25.5
2018-12-12T10:04:03.898Z,25.5
2018-12-12T10:04:52.279Z,25.5
2018-12-12T10:05:43.918Z,25.4
2018-12-12T10:06:33.195Z,25.4
2018-12-12T10:07:24.302Z,25.4
2018-12-12T10:08:14.155Z,25.4
2018-12-12T10:09:05.415Z,25.3
2018-12-12T10:09:54.217Z,25.3
2018-12-12T10:10:43.720Z,25.3
2018-12-12T10:11:34.052Z,25.3
2018-12-12T10:12:23.689Z,25.2
2018-12-12T10:13:14.464Z,25.1
2018-12-12T10:14:04.242Z,25.1
2018-12-12T10:14:54.597Z,25.1
2018-12-12T10:15:44.096Z,25
2018-12-12T10:16:34.492Z,25
2018-12-12T10:17:23.705Z,24.9
2018-12-12T10:18:13.984Z,24.9
2018-12-12T10:19:04.319Z,24.9
2018-12-12T10:19:54.367Z,24.8
2018-12-12T10:20:44.701Z,24.8
2018-12-12T10:21:35.043Z,24.8
2018-12-12T10:22:24.907Z,24.7
2018-12-12T10:23:14.926Z,24.6
2018-12-12T10:24:04.642Z,24.6
2018-12-12T10:24:55.131Z,24.6
2018-12-12T10:25:45.396Z,24.5
2018-12-12T10:26:34.551Z,24.4
2018-12-12T10:27:25.436Z,24.4
2018-12-12T10:28:15.533Z,24.4
2018-12-12T10:29:05.033Z,24.3
2018-12-12T10:29:55.121Z,24.3
2018-12-12T10:30:45.480Z,24.2
2018-12-12T10:31:35.576Z,24.2
2018-12-12T10:32:25.803Z,24.1
2018-12-12T10:33:15.596Z,24.1
2018-12-12T10:34:05.626Z,24.1
2018-12-12T10:34:55.723Z,24.1
2018-12-12T10:35:46.033Z,24
2018-12-12T10:36:35.355Z,23.9
2018-12-12T10:37:25.313Z,23.9
2018-12-12T10:38:15.353Z,23.9
2018-12-12T10:39:05.998Z,23.8
2018-12-12T10:39:56.288Z,23.8
2018-12-12T10:40:46.148Z,23.8
2018-12-12T10:41:36.210Z,23.8
2018-12-12T10:42:26.490Z,23.8
2018-12-12T10:43:16.115Z,23.7
2018-12-12T10:44:05.769Z,23.7
2018-12-12T10:44:56.385Z,23.6
2018-12-12T10:45:46.232Z,23.6
2018-12-12T10:46:36.292Z,23.6
2018-12-12T10:47:26.069Z,23.6
2018-12-12T10:48:16.422Z,23.5
2018-12-12T10:49:05.952Z,23.5
2018-12-12T10:49:56.795Z,23.4
2018-12-12T10:50:47.199Z,23.4
2018-12-12T10:51:36.586Z,23.4
2018-12-12T10:52:26.622Z,23.4
2018-12-12T10:53:18.061Z,23.3
2018-12-12T10:54:07.300Z,23.3
2018-12-12T10:54:57.077Z,23.3
2018-12-12T10:55:47.612Z,23.3
2018-12-12T10:56:36.459Z,23.2
2018-12-12T10:57:26.414Z,23.2
2018-12-12T10:58:17.535Z,23.1
2018-12-12T10:59:06.805Z,23.1
2018-12-12T10:59:56.854Z,23.1
2018-12-12T11:00:46.662Z,23.1
2018-12-12T11:01:37.818Z,23
2018-12-12T11:02:27.872Z,23
2018-12-12T11:03:17.337Z,22.9
2018-12-12T11:04:07.977Z,22.9
2018-12-12T11:04:57.763Z,22.9
2018-12-12T11:05:48.606Z,22.9
2018-12-12T11:06:37.664Z,22.8
2018-12-12T11:07:27.940Z,22.8
2018-12-12T11:08:18.246Z,22.8
2018-12-12T11:09:08.334Z,22.8
2018-12-12T11:09:58.230Z,22.7
2018-12-12T11:10:48.681Z,22.7
2018-12-12T11:11:38.810Z,22.6
2018-12-12T11:12:28.544Z,22.6
2018-12-12T11:13:18.051Z,22.6
2018-12-12T11:14:09.521Z,22.6
2018-12-12T11:14:57.906Z,22.6
2018-12-12T11:15:48.211Z,22.6
2018-12-12T11:16:38.558Z,22.6
2018-12-12T11:17:28.881Z,22.5
2018-12-12T11:18:18.168Z,22.5
2018-12-12T11:19:09.351Z,22.5
2018-12-12T11:19:58.535Z,22.5
2018-12-12T11:20:48.838Z,22.4
2018-12-12T11:21:39.133Z,22.4
2018-12-12T11:22:28.943Z,22.4
2018-12-12T11:23:19.013Z,22.4
2018-12-12T11:24:09.655Z,22.3
2018-12-12T11:24:59.467Z,22.3
2018-12-12T11:25:49.158Z,22.3
2018-12-12T11:26:39.250Z,22.3
2018-12-12T11:27:29.556Z,22.3
2018-12-12T11:28:19.355Z,22.3
2018-12-12T11:29:09.140Z,22.2
2018-12-12T11:29:59.297Z,22.2
2018-12-12T11:30:48.950Z,22.1
2018-12-12T11:31:38.756Z,22.1
2018-12-12T11:32:28.957Z,22.1
2018-12-12T11:33:20.227Z,22.1
2018-12-12T11:34:09.812Z,22.1
2018-12-12T11:34:59.577Z,22.1
2018-12-12T11:35:49.356Z,22
2018-12-12T11:36:40.857Z,22
2018-12-12T11:37:29.492Z,22
2018-12-12T11:38:19.309Z,22
2018-12-12T11:39:08.854Z,21.9
2018-12-12T11:39:59.929Z,21.9
2018-12-12T11:40:50.544Z,21.9
2018-12-12T11:41:40.079Z,21.9
2018-12-12T11:42:30.625Z,21.9
2018-12-12T11:43:20.389Z,21.9
2018-12-12T11:44:10.189Z,21.9
2018-12-12T11:45:00.245Z,21.8
2018-12-12T11:45:50.324Z,21.8
2018-12-12T11:46:40.624Z,21.8
2018-12-12T11:47:30.956Z,21.8
2018-12-12T11:48:20.730Z,21.8
2018-12-12T11:49:10.584Z,21.8
2018-12-12T11:50:01.444Z,21.8
2018-12-12T11:50:50.654Z,21.8
2018-12-12T11:51:40.726Z,21.8
2018-12-12T11:52:31.074Z,21.8
2018-12-12T11:53:20.804Z,21.7
2018-12-12T11:54:10.846Z,21.7
2018-12-12T11:55:00.898Z,21.7
2018-12-12T11:55:51.104Z,21.7
2018-12-12T11:56:40.388Z,21.6
2018-12-12T11:57:32.491Z,21.6
2018-12-12T11:58:20.203Z,21.6
2018-12-12T11:59:10.493Z,21.6
2018-12-12T12:00:00.793Z,21.6
2018-12-12T12:00:51.235Z,21.6
2018-12-12T12:01:40.963Z,21.6
2018-12-12T12:02:37.574Z,21.6
2018-12-12T12:03:21.289Z,21.6
2018-12-12T12:04:11.843Z,21.6
2018-12-12T12:05:01.612Z,21.6
2018-12-12T12:05:52.002Z,21.5
2018-12-12T12:06:42.908Z,21.5
2018-12-12T12:07:32.430Z,21.4
2018-12-12T12:08:21.837Z,21.4
2018-12-12T12:09:11.969Z,21.4
2018-12-12T12:10:02.282Z,21.4
2018-12-12T12:10:52.102Z,21.4
2018-12-12T12:11:43.116Z,21.4
2018-12-12T12:12:32.127Z,21.4
2018-12-12T12:13:22.225Z,21.4
2018-12-12T12:14:12.799Z,21.4
2018-12-12T12:15:02.863Z,21.4
2018-12-12T12:15:53.229Z,21.4
2018-12-12T12:16:43.492Z,21.3